Terminal Aerodrome Forecast
Issued by NWS Norman, OK

Home | Current Version | Previous Version | Text Only | Print | Product List | Glossary On
Versions: 1 2 3 4 5 6 7 8 9 10 11 12 13
000
FTUS44 KOUN 031120
TAFSPS
TAF
KSPS 031120Z 0312/0412 VRB05KT P6SM SKC
     FM031800 20007KT P6SM BKN150 BKN250 PROB30 0322/0402 5SM -RA
      BKN070
     FM040300 25007KT P6SM SCT150 SCT250=

USA.gov is the U.S. government's official web portal to all federal, state and local government web resources and services.